EGSS METAR and TAF | Updated Today

EGSS METAR

London Stansted Airport

Observation time: 17 min. ago

EGSS 251920Z AUTO 26009KT 9999 NCD 16/10 Q1014

Need help? Read our tutorial on how to read METARs or read the parsed version below.

London Stansted Airport (EGSS) METAR

  • Weather conditions on Wed, 25 May 2022 19:20:00 +0000 (17 min. ago):
  • Present conditions: Dry
  • Clouds: Nil cloud detected
  • Visibility: Greater than 10 km
  • Wind: 260 degrees at 9 knots
  • Temperature: 16 celsius
  • Dew point: 10 celsius
  • Pressure: 1014 millibars
  • Remarks: None


Useful to know...

EGSS TAF

London Stansted Airport

TAF EGSS 251659Z 2518/2624 25010KT 9999 SCT029 TEMPO 2612/2618 26016G26KT PROB40 TEMPO 2621/2624 BKN010
Observation time: 2:38 hr. ago
Need help? Read our tutorial on how to read TAFs or read the parsed version below.

Parsed version of TAF for London Stansted Airport (EGSS)

  • From 25 May at 18:00 UTC, to day 26 of the month at 24:00 UTC
  • Clouds: Scattered at 884 meters
  • Visibility: Greater than 10 km
  • Wind: 250 degrees at 10
  • Expected to arise temporarily, from 26 May at 12:00 UTC, to day 26 of the month at 18:00 UTC
  • Wind: 260 degrees at 16
  • Expected to arise temporarily, from 26 May at 21:00 UTC, to day 26 of the month at 24:00 UTC
    Probability of 40%
  • Clouds: Broken sky at 305 meters